sensor_id;sensor_type;location;lat;lon;timestamp;P1;durP1;ratioP1;P2;durP2;ratioP2
35188;SDS011;21762;54.480;18.556;2022-10-22T00:00:42;44.90;;;25.33;;
35188;SDS011;21762;54.480;18.556;2022-10-22T00:03:10;50.60;;;26.58;;
35188;SDS011;21762;54.480;18.556;2022-10-22T00:05:42;51.97;;;27.83;;
35188;SDS011;21762;54.480;18.556;2022-10-22T00:08:10;54.38;;;27.73;;
35188;SDS011;21762;54.480;18.556;2022-10-22T00:10:41;52.35;;;26.80;;
35188;SDS011;21762;54.480;18.556;2022-10-22T00:13:09;52.25;;;28.33;;
35188;SDS011;21762;54.480;18.556;2022-10-22T00:15:37;50.72;;;25.15;;
35188;SDS011;21762;54.480;18.556;2022-10-22T00:18:06;52.65;;;25.55;;
35188;SDS011;21762;54.480;18.556;2022-10-22T00:20:34;48.35;;;25.17;;
35188;SDS011;21762;54.480;18.556;2022-10-22T00:23:04;51.38;;;25.65;;
35188;SDS011;21762;54.480;18.556;2022-10-22T00:25:32;51.90;;;26.23;;
35188;SDS011;21762;54.480;18.556;2022-10-22T00:28:01;48.42;;;25.25;;
35188;SDS011;21762;54.480;18.556;2022-10-22T00:30:33;52.13;;;26.92;;
35188;SDS011;21762;54.480;18.556;2022-10-22T00:33:03;50.30;;;25.30;;
35188;SDS011;21762;54.480;18.556;2022-10-22T00:35:31;48.72;;;26.58;;
35188;SDS011;21762;54.480;18.556;2022-10-22T00:38:00;49.53;;;26.02;;
35188;SDS011;21762;54.480;18.556;2022-10-22T00:40:29;46.88;;;25.77;;
35188;SDS011;21762;54.480;18.556;2022-10-22T00:42:57;48.63;;;26.98;;
35188;SDS011;21762;54.480;18.556;2022-10-22T00:45:26;52.88;;;27.10;;
35188;SDS011;21762;54.480;18.556;2022-10-22T00:47:58;51.35;;;26.77;;
35188;SDS011;21762;54.480;18.556;2022-10-22T00:50:29;47.83;;;25.40;;
35188;SDS011;21762;54.480;18.556;2022-10-22T00:52:59;50.90;;;25.38;;
35188;SDS011;21762;54.480;18.556;2022-10-22T00:55:29;57.90;;;26.40;;
35188;SDS011;21762;54.480;18.556;2022-10-22T00:57:58;47.15;;;24.08;;
35188;SDS011;21762;54.480;18.556;2022-10-22T01:00:27;47.97;;;25.83;;
35188;SDS011;21762;54.480;18.556;2022-10-22T01:02:55;46.72;;;24.40;;
35188;SDS011;21762;54.480;18.556;2022-10-22T01:05:25;56.22;;;27.25;;
35188;SDS011;21762;54.480;18.556;2022-10-22T01:07:54;42.55;;;23.83;;
35188;SDS011;21762;54.480;18.556;2022-10-22T01:10:28;47.65;;;24.52;;
35188;SDS011;21762;54.480;18.556;2022-10-22T01:13:07;43.97;;;23.75;;
35188;SDS011;21762;54.480;18.556;2022-10-22T01:15:44;46.42;;;25.10;;
35188;SDS011;21762;54.480;18.556;2022-10-22T01:18:18;51.15;;;26.27;;
35188;SDS011;21762;54.480;18.556;2022-10-22T01:20:54;50.10;;;25.75;;
35188;SDS011;21762;54.480;18.556;2022-10-22T01:23:41;52.35;;;27.38;;
35188;SDS011;21762;54.480;18.556;2022-10-22T01:26:30;48.60;;;26.25;;
35188;SDS011;21762;54.480;18.556;2022-10-22T01:29:06;55.92;;;26.45;;
35188;SDS011;21762;54.480;18.556;2022-10-22T01:31:38;48.17;;;24.95;;
35188;SDS011;21762;54.480;18.556;2022-10-22T01:34:10;46.22;;;24.92;;
35188;SDS011;21762;54.480;18.556;2022-10-22T01:36:39;47.65;;;25.63;;
35188;SDS011;21762;54.480;18.556;2022-10-22T01:39:08;53.13;;;26.27;;
35188;SDS011;21762;54.480;18.556;2022-10-22T01:41:41;60.92;;;28.23;;
35188;SDS011;21762;54.480;18.556;2022-10-22T01:44:23;57.20;;;29.58;;
35188;SDS011;21762;54.480;18.556;2022-10-22T01:46:52;54.07;;;28.63;;
35188;SDS011;21762;54.480;18.556;2022-10-22T01:49:32;58.53;;;29.48;;
35188;SDS011;21762;54.480;18.556;2022-10-22T01:52:08;55.92;;;28.83;;
35188;SDS011;21762;54.480;18.556;2022-10-22T01:54:44;61.47;;;30.98;;
35188;SDS011;21762;54.480;18.556;2022-10-22T01:57:14;62.55;;;30.02;;
35188;SDS011;21762;54.480;18.556;2022-10-22T01:59:49;53.22;;;28.05;;
35188;SDS011;21762;54.480;18.556;2022-10-22T02:02:25;47.85;;;26.92;;
35188;SDS011;21762;54.480;18.556;2022-10-22T02:04:57;56.38;;;27.55;;
35188;SDS011;21762;54.480;18.556;2022-10-22T02:07:29;54.33;;;29.73;;
35188;SDS011;21762;54.480;18.556;2022-10-22T02:09:59;61.55;;;28.08;;
35188;SDS011;21762;54.480;18.556;2022-10-22T02:12:28;50.05;;;26.88;;
35188;SDS011;21762;54.480;18.556;2022-10-22T02:14:59;54.45;;;29.38;;
35188;SDS011;21762;54.480;18.556;2022-10-22T02:17:31;58.53;;;30.65;;
35188;SDS011;21762;54.480;18.556;2022-10-22T02:20:00;59.17;;;29.60;;
35188;SDS011;21762;54.480;18.556;2022-10-22T02:22:34;57.75;;;28.48;;
35188;SDS011;21762;54.480;18.556;2022-10-22T02:25:03;57.75;;;29.60;;
35188;SDS011;21762;54.480;18.556;2022-10-22T02:27:34;54.42;;;28.33;;
35188;SDS011;21762;54.480;18.556;2022-10-22T02:30:09;56.88;;;30.00;;
35188;SDS011;21762;54.480;18.556;2022-10-22T02:32:39;55.60;;;28.40;;
35188;SDS011;21762;54.480;18.556;2022-10-22T02:35:09;61.60;;;31.52;;
35188;SDS011;21762;54.480;18.556;2022-10-22T02:37:39;61.33;;;30.52;;
35188;SDS011;21762;54.480;18.556;2022-10-22T02:40:08;60.05;;;30.80;;
35188;SDS011;21762;54.480;18.556;2022-10-22T02:42:36;57.03;;;30.52;;
35188;SDS011;21762;54.480;18.556;2022-10-22T02:45:06;56.05;;;28.55;;
35188;SDS011;21762;54.480;18.556;2022-10-22T02:47:37;57.13;;;29.75;;
35188;SDS011;21762;54.480;18.556;2022-10-22T02:50:05;57.63;;;28.95;;
35188;SDS011;21762;54.480;18.556;2022-10-22T02:52:34;51.83;;;28.13;;
35188;SDS011;21762;54.480;18.556;2022-10-22T02:55:03;56.08;;;27.50;;
35188;SDS011;21762;54.480;18.556;2022-10-22T02:57:32;59.17;;;29.60;;
35188;SDS011;21762;54.480;18.556;2022-10-22T03:00:03;52.22;;;27.08;;
35188;SDS011;21762;54.480;18.556;2022-10-22T03:02:33;58.50;;;26.02;;
35188;SDS011;21762;54.480;18.556;2022-10-22T03:05:01;51.75;;;27.38;;
35188;SDS011;21762;54.480;18.556;2022-10-22T03:07:29;51.88;;;27.08;;
35188;SDS011;21762;54.480;18.556;2022-10-22T03:09:57;49.65;;;28.30;;
35188;SDS011;21762;54.480;18.556;2022-10-22T03:12:27;52.85;;;26.45;;
35188;SDS011;21762;54.480;18.556;2022-10-22T03:14:55;52.22;;;28.02;;
35188;SDS011;21762;54.480;18.556;2022-10-22T03:17:23;52.80;;;26.98;;
35188;SDS011;21762;54.480;18.556;2022-10-22T03:19:52;48.83;;;26.73;;
35188;SDS011;21762;54.480;18.556;2022-10-22T03:22:21;44.67;;;26.10;;
35188;SDS011;21762;54.480;18.556;2022-10-22T03:24:51;50.88;;;25.75;;
35188;SDS011;21762;54.480;18.556;2022-10-22T03:27:22;49.10;;;27.83;;
35188;SDS011;21762;54.480;18.556;2022-10-22T03:29:50;51.97;;;26.67;;
35188;SDS011;21762;54.480;18.556;2022-10-22T03:32:19;49.80;;;25.58;;
35188;SDS011;21762;54.480;18.556;2022-10-22T03:34:47;53.85;;;26.40;;
35188;SDS011;21762;54.480;18.556;2022-10-22T03:37:16;51.72;;;25.83;;
35188;SDS011;21762;54.480;18.556;2022-10-22T03:39:45;54.47;;;27.30;;
35188;SDS011;21762;54.480;18.556;2022-10-22T03:42:13;55.20;;;27.67;;
35188;SDS011;21762;54.480;18.556;2022-10-22T03:44:41;52.10;;;26.40;;
35188;SDS011;21762;54.480;18.556;2022-10-22T03:47:10;49.03;;;26.20;;
35188;SDS011;21762;54.480;18.556;2022-10-22T03:49:40;49.63;;;26.17;;
35188;SDS011;21762;54.480;18.556;2022-10-22T03:52:09;54.55;;;27.35;;
35188;SDS011;21762;54.480;18.556;2022-10-22T03:54:39;48.15;;;25.95;;
35188;SDS011;21762;54.480;18.556;2022-10-22T03:57:07;48.47;;;26.15;;
35188;SDS011;21762;54.480;18.556;2022-10-22T03:59:36;48.85;;;25.52;;
35188;SDS011;21762;54.480;18.556;2022-10-22T04:02:04;49.08;;;25.13;;
35188;SDS011;21762;54.480;18.556;2022-10-22T04:04:33;52.88;;;26.00;;
35188;SDS011;21762;54.480;18.556;2022-10-22T04:07:01;48.45;;;26.92;;
35188;SDS011;21762;54.480;18.556;2022-10-22T04:09:30;47.78;;;26.27;;
35188;SDS011;21762;54.480;18.556;2022-10-22T04:11:59;47.00;;;25.10;;
35188;SDS011;21762;54.480;18.556;2022-10-22T04:14:28;52.47;;;25.73;;
35188;SDS011;21762;54.480;18.556;2022-10-22T04:16:56;54.70;;;27.65;;
35188;SDS011;21762;54.480;18.556;2022-10-22T04:19:24;58.58;;;29.23;;
35188;SDS011;21762;54.480;18.556;2022-10-22T04:21:52;50.05;;;27.80;;
35188;SDS011;21762;54.480;18.556;2022-10-22T04:24:23;55.22;;;26.55;;
35188;SDS011;21762;54.480;18.556;2022-10-22T04:26:52;46.85;;;26.17;;
35188;SDS011;21762;54.480;18.556;2022-10-22T04:29:21;51.55;;;27.10;;
35188;SDS011;21762;54.480;18.556;2022-10-22T04:31:50;47.42;;;27.17;;
35188;SDS011;21762;54.480;18.556;2022-10-22T04:34:18;52.00;;;25.90;;
35188;SDS011;21762;54.480;18.556;2022-10-22T04:36:46;49.20;;;25.45;;
35188;SDS011;21762;54.480;18.556;2022-10-22T04:39:14;46.45;;;26.27;;
35188;SDS011;21762;54.480;18.556;2022-10-22T04:41:42;47.65;;;25.48;;
35188;SDS011;21762;54.480;18.556;2022-10-22T04:44:10;53.33;;;26.98;;
35188;SDS011;21762;54.480;18.556;2022-10-22T04:46:40;50.35;;;26.88;;
35188;SDS011;21762;54.480;18.556;2022-10-22T04:49:09;47.88;;;26.40;;
35188;SDS011;21762;54.480;18.556;2022-10-22T04:51:37;51.38;;;26.38;;
35188;SDS011;21762;54.480;18.556;2022-10-22T04:54:05;47.75;;;26.33;;
35188;SDS011;21762;54.480;18.556;2022-10-22T04:56:33;48.92;;;26.15;;
35188;SDS011;21762;54.480;18.556;2022-10-22T04:59:02;51.70;;;25.05;;
35188;SDS011;21762;54.480;18.556;2022-10-22T05:01:31;50.13;;;25.38;;
35188;SDS011;21762;54.480;18.556;2022-10-22T05:04:03;44.85;;;25.45;;
35188;SDS011;21762;54.480;18.556;2022-10-22T05:06:33;49.10;;;25.83;;
35188;SDS011;21762;54.480;18.556;2022-10-22T05:09:03;53.33;;;27.55;;
35188;SDS011;21762;54.480;18.556;2022-10-22T05:11:33;52.40;;;25.50;;
35188;SDS011;21762;54.480;18.556;2022-10-22T05:14:03;51.55;;;26.38;;
35188;SDS011;21762;54.480;18.556;2022-10-22T05:16:33;50.53;;;25.45;;
35188;SDS011;21762;54.480;18.556;2022-10-22T05:19:05;50.30;;;25.30;;
35188;SDS011;21762;54.480;18.556;2022-10-22T05:21:33;51.70;;;28.50;;
35188;SDS011;21762;54.480;18.556;2022-10-22T05:24:02;48.75;;;26.05;;
35188;SDS011;21762;54.480;18.556;2022-10-22T05:26:30;49.88;;;25.50;;
35188;SDS011;21762;54.480;18.556;2022-10-22T05:28:58;48.45;;;25.35;;
35188;SDS011;21762;54.480;18.556;2022-10-22T05:31:26;49.22;;;25.55;;
35188;SDS011;21762;54.480;18.556;2022-10-22T05:33:54;44.92;;;25.55;;
35188;SDS011;21762;54.480;18.556;2022-10-22T05:36:25;49.53;;;25.05;;
35188;SDS011;21762;54.480;18.556;2022-10-22T05:38:53;49.33;;;26.35;;
35188;SDS011;21762;54.480;18.556;2022-10-22T05:41:21;51.78;;;26.65;;
35188;SDS011;21762;54.480;18.556;2022-10-22T05:43:52;49.75;;;26.33;;
35188;SDS011;21762;54.480;18.556;2022-10-22T05:46:22;50.13;;;25.33;;
35188;SDS011;21762;54.480;18.556;2022-10-22T05:48:51;46.80;;;25.27;;
35188;SDS011;21762;54.480;18.556;2022-10-22T05:51:20;51.35;;;25.10;;
35188;SDS011;21762;54.480;18.556;2022-10-22T05:53:51;48.13;;;25.63;;
35188;SDS011;21762;54.480;18.556;2022-10-22T05:56:20;47.03;;;25.88;;
35188;SDS011;21762;54.480;18.556;2022-10-22T05:58:49;48.25;;;25.38;;
35188;SDS011;21762;54.480;18.556;2022-10-22T06:01:18;48.42;;;25.27;;
35188;SDS011;21762;54.480;18.556;2022-10-22T06:03:47;50.60;;;28.95;;
35188;SDS011;21762;54.480;18.556;2022-10-22T06:06:17;52.30;;;28.35;;
35188;SDS011;21762;54.480;18.556;2022-10-22T06:08:47;56.10;;;28.70;;
35188;SDS011;21762;54.480;18.556;2022-10-22T06:11:18;54.38;;;29.05;;
35188;SDS011;21762;54.480;18.556;2022-10-22T06:13:46;58.28;;;30.73;;
35188;SDS011;21762;54.480;18.556;2022-10-22T06:16:15;54.03;;;30.45;;
35188;SDS011;21762;54.480;18.556;2022-10-22T06:18:43;56.13;;;29.70;;
35188;SDS011;21762;54.480;18.556;2022-10-22T06:21:12;51.72;;;27.75;;
35188;SDS011;21762;54.480;18.556;2022-10-22T06:23:42;58.28;;;28.95;;
35188;SDS011;21762;54.480;18.556;2022-10-22T06:26:12;57.97;;;29.80;;
35188;SDS011;21762;54.480;18.556;2022-10-22T06:28:44;61.50;;;29.48;;
35188;SDS011;21762;54.480;18.556;2022-10-22T06:31:12;54.53;;;28.70;;
35188;SDS011;21762;54.480;18.556;2022-10-22T06:33:40;49.78;;;26.55;;
35188;SDS011;21762;54.480;18.556;2022-10-22T06:36:11;54.60;;;27.52;;
35188;SDS011;21762;54.480;18.556;2022-10-22T06:38:41;54.72;;;27.20;;
35188;SDS011;21762;54.480;18.556;2022-10-22T06:41:10;49.83;;;27.98;;
35188;SDS011;21762;54.480;18.556;2022-10-22T06:43:42;53.95;;;28.75;;
35188;SDS011;21762;54.480;18.556;2022-10-22T06:46:14;50.72;;;27.13;;
35188;SDS011;21762;54.480;18.556;2022-10-22T06:51:15;53.90;;;27.52;;
35188;SDS011;21762;54.480;18.556;2022-10-22T06:53:43;49.13;;;26.23;;
35188;SDS011;21762;54.480;18.556;2022-10-22T06:56:12;54.65;;;27.73;;
35188;SDS011;21762;54.480;18.556;2022-10-22T06:58:45;48.65;;;26.52;;
35188;SDS011;21762;54.480;18.556;2022-10-22T07:01:15;50.50;;;26.67;;
35188;SDS011;21762;54.480;18.556;2022-10-22T07:03:45;51.75;;;27.20;;
35188;SDS011;21762;54.480;18.556;2022-10-22T07:06:13;49.90;;;26.35;;
35188;SDS011;21762;54.480;18.556;2022-10-22T07:08:41;54.63;;;28.30;;
35188;SDS011;21762;54.480;18.556;2022-10-22T07:11:10;43.58;;;25.35;;
35188;SDS011;21762;54.480;18.556;2022-10-22T07:13:40;48.85;;;28.02;;
35188;SDS011;21762;54.480;18.556;2022-10-22T07:16:11;46.20;;;26.70;;
35188;SDS011;21762;54.480;18.556;2022-10-22T07:18:41;49.42;;;25.85;;
35188;SDS011;21762;54.480;18.556;2022-10-22T07:21:10;47.88;;;26.73;;
35188;SDS011;21762;54.480;18.556;2022-10-22T07:23:38;52.00;;;28.50;;
35188;SDS011;21762;54.480;18.556;2022-10-22T07:26:07;56.58;;;28.33;;
35188;SDS011;21762;54.480;18.556;2022-10-22T07:28:36;54.35;;;28.65;;
35188;SDS011;21762;54.480;18.556;2022-10-22T07:31:06;53.50;;;28.58;;
35188;SDS011;21762;54.480;18.556;2022-10-22T07:33:36;61.55;;;30.45;;
35188;SDS011;21762;54.480;18.556;2022-10-22T07:36:06;59.92;;;29.55;;
35188;SDS011;21762;54.480;18.556;2022-10-22T07:38:41;57.00;;;29.75;;
35188;SDS011;21762;54.480;18.556;2022-10-22T07:41:12;57.35;;;30.60;;
35188;SDS011;21762;54.480;18.556;2022-10-22T07:43:50;62.13;;;31.33;;
35188;SDS011;21762;54.480;18.556;2022-10-22T07:46:28;59.25;;;29.35;;
35188;SDS011;21762;54.480;18.556;2022-10-22T07:48:58;56.40;;;28.17;;
35188;SDS011;21762;54.480;18.556;2022-10-22T07:51:29;50.40;;;28.25;;
35188;SDS011;21762;54.480;18.556;2022-10-22T07:53:57;53.17;;;27.33;;
35188;SDS011;21762;54.480;18.556;2022-10-22T07:56:25;53.58;;;29.23;;
35188;SDS011;21762;54.480;18.556;2022-10-22T07:58:56;57.42;;;29.85;;
35188;SDS011;21762;54.480;18.556;2022-10-22T08:01:24;65.10;;;32.05;;
35188;SDS011;21762;54.480;18.556;2022-10-22T08:03:52;57.53;;;30.48;;
35188;SDS011;21762;54.480;18.556;2022-10-22T08:06:20;51.92;;;30.77;;
35188;SDS011;21762;54.480;18.556;2022-10-22T08:08:50;52.50;;;29.88;;
35188;SDS011;21762;54.480;18.556;2022-10-22T08:11:18;56.45;;;29.63;;
35188;SDS011;21762;54.480;18.556;2022-10-22T08:13:46;54.88;;;31.75;;
35188;SDS011;21762;54.480;18.556;2022-10-22T08:16:14;51.88;;;29.15;;
35188;SDS011;21762;54.480;18.556;2022-10-22T08:18:42;57.28;;;31.02;;
35188;SDS011;21762;54.480;18.556;2022-10-22T08:21:11;57.80;;;28.95;;
35188;SDS011;21762;54.480;18.556;2022-10-22T08:23:40;53.95;;;30.35;;
35188;SDS011;21762;54.480;18.556;2022-10-22T08:26:09;50.88;;;28.42;;
35188;SDS011;21762;54.480;18.556;2022-10-22T08:28:37;52.47;;;28.63;;
35188;SDS011;21762;54.480;18.556;2022-10-22T08:31:08;54.08;;;28.58;;
35188;SDS011;21762;54.480;18.556;2022-10-22T08:33:37;51.28;;;28.65;;
35188;SDS011;21762;54.480;18.556;2022-10-22T08:36:08;50.88;;;29.25;;
35188;SDS011;21762;54.480;18.556;2022-10-22T08:38:36;54.28;;;30.50;;
35188;SDS011;21762;54.480;18.556;2022-10-22T08:41:08;44.15;;;28.08;;
35188;SDS011;21762;54.480;18.556;2022-10-22T08:46:42;52.95;;;30.08;;
35188;SDS011;21762;54.480;18.556;2022-10-22T08:49:18;58.17;;;29.45;;
35188;SDS011;21762;54.480;18.556;2022-10-22T08:51:48;59.67;;;29.05;;
35188;SDS011;21762;54.480;18.556;2022-10-22T08:54:20;52.17;;;29.15;;
35188;SDS011;21762;54.480;18.556;2022-10-22T08:56:55;50.85;;;28.23;;
35188;SDS011;21762;54.480;18.556;2022-10-22T08:59:33;50.63;;;27.92;;
35188;SDS011;21762;54.480;18.556;2022-10-22T09:02:07;56.00;;;29.13;;
35188;SDS011;21762;54.480;18.556;2022-10-22T09:04:46;50.35;;;28.00;;
35188;SDS011;21762;54.480;18.556;2022-10-22T09:07:18;51.25;;;29.48;;
35188;SDS011;21762;54.480;18.556;2022-10-22T09:09:48;53.33;;;29.90;;
35188;SDS011;21762;54.480;18.556;2022-10-22T09:12:26;49.38;;;29.08;;
35188;SDS011;21762;54.480;18.556;2022-10-22T09:14:55;51.13;;;29.63;;
35188;SDS011;21762;54.480;18.556;2022-10-22T09:17:24;51.55;;;28.98;;
35188;SDS011;21762;54.480;18.556;2022-10-22T09:20:03;49.70;;;28.35;;
35188;SDS011;21762;54.480;18.556;2022-10-22T09:22:37;53.50;;;29.83;;
35188;SDS011;21762;54.480;18.556;2022-10-22T09:25:13;53.58;;;29.23;;
35188;SDS011;21762;54.480;18.556;2022-10-22T09:27:46;53.58;;;29.40;;
35188;SDS011;21762;54.480;18.556;2022-10-22T09:30:15;52.97;;;28.38;;
35188;SDS011;21762;54.480;18.556;2022-10-22T09:32:49;51.75;;;28.33;;
35188;SDS011;21762;54.480;18.556;2022-10-22T09:35:20;53.30;;;29.05;;
35188;SDS011;21762;54.480;18.556;2022-10-22T09:37:50;50.88;;;29.23;;
35188;SDS011;21762;54.480;18.556;2022-10-22T09:40:18;56.33;;;28.95;;
35188;SDS011;21762;54.480;18.556;2022-10-22T09:42:48;57.13;;;30.65;;
35188;SDS011;21762;54.480;18.556;2022-10-22T09:45:19;54.45;;;29.48;;
35188;SDS011;21762;54.480;18.556;2022-10-22T09:48:02;56.00;;;30.80;;
35188;SDS011;21762;54.480;18.556;2022-10-22T09:50:40;59.08;;;30.83;;
35188;SDS011;21762;54.480;18.556;2022-10-22T09:53:11;53.42;;;30.23;;
35188;SDS011;21762;54.480;18.556;2022-10-22T09:55:41;47.90;;;29.33;;
35188;SDS011;21762;54.480;18.556;2022-10-22T09:58:11;49.85;;;28.40;;
35188;SDS011;21762;54.480;18.556;2022-10-22T10:00:42;52.33;;;29.40;;
35188;SDS011;21762;54.480;18.556;2022-10-22T10:03:14;51.70;;;29.50;;
35188;SDS011;21762;54.480;18.556;2022-10-22T10:05:47;50.30;;;28.88;;
35188;SDS011;21762;54.480;18.556;2022-10-22T10:08:19;52.35;;;29.00;;
35188;SDS011;21762;54.480;18.556;2022-10-22T10:10:47;52.47;;;29.95;;
35188;SDS011;21762;54.480;18.556;2022-10-22T10:13:24;51.78;;;29.45;;
35188;SDS011;21762;54.480;18.556;2022-10-22T10:16:01;48.53;;;29.17;;
35188;SDS011;21762;54.480;18.556;2022-10-22T10:18:39;52.83;;;29.80;;
35188;SDS011;21762;54.480;18.556;2022-10-22T10:21:14;49.63;;;30.30;;
35188;SDS011;21762;54.480;18.556;2022-10-22T10:23:48;52.35;;;29.88;;
35188;SDS011;21762;54.480;18.556;2022-10-22T10:26:21;53.05;;;30.13;;
35188;SDS011;21762;54.480;18.556;2022-10-22T10:28:59;50.17;;;31.98;;
35188;SDS011;21762;54.480;18.556;2022-10-22T10:31:36;63.58;;;34.83;;
35188;SDS011;21762;54.480;18.556;2022-10-22T10:34:15;59.50;;;33.67;;
35188;SDS011;21762;54.480;18.556;2022-10-22T10:36:50;63.25;;;35.30;;
35188;SDS011;21762;54.480;18.556;2022-10-22T10:39:22;65.25;;;34.85;;
35188;SDS011;21762;54.480;18.556;2022-10-22T10:41:54;56.67;;;33.55;;
35188;SDS011;21762;54.480;18.556;2022-10-22T10:44:34;61.10;;;33.83;;
35188;SDS011;21762;54.480;18.556;2022-10-22T10:47:10;58.72;;;32.03;;
35188;SDS011;21762;54.480;18.556;2022-10-22T10:49:45;68.60;;;33.35;;
35188;SDS011;21762;54.480;18.556;2022-10-22T10:52:15;59.65;;;30.92;;
35188;SDS011;21762;54.480;18.556;2022-10-22T10:54:50;54.47;;;28.38;;
35188;SDS011;21762;54.480;18.556;2022-10-22T10:57:24;54.15;;;28.90;;
35188;SDS011;21762;54.480;18.556;2022-10-22T11:00:04;52.20;;;28.77;;
35188;SDS011;21762;54.480;18.556;2022-10-22T11:05:31;46.60;;;25.30;;
35188;SDS011;21762;54.480;18.556;2022-10-22T11:08:06;46.38;;;25.08;;
35188;SDS011;21762;54.480;18.556;2022-10-22T11:10:38;45.35;;;25.63;;
35188;SDS011;21762;54.480;18.556;2022-10-22T11:13:11;48.08;;;26.45;;
35188;SDS011;21762;54.480;18.556;2022-10-22T11:15:45;49.35;;;26.38;;
35188;SDS011;21762;54.480;18.556;2022-10-22T11:18:16;46.35;;;25.55;;
35188;SDS011;21762;54.480;18.556;2022-10-22T11:20:49;45.38;;;25.88;;
35188;SDS011;21762;54.480;18.556;2022-10-22T11:23:22;39.47;;;22.13;;
35188;SDS011;21762;54.480;18.556;2022-10-22T11:25:54;43.65;;;23.92;;
35188;SDS011;21762;54.480;18.556;2022-10-22T11:28:26;37.63;;;21.75;;
35188;SDS011;21762;54.480;18.556;2022-10-22T11:31:01;37.45;;;20.25;;
35188;SDS011;21762;54.480;18.556;2022-10-22T11:33:32;32.55;;;19.73;;
35188;SDS011;21762;54.480;18.556;2022-10-22T11:36:06;31.95;;;19.48;;
35188;SDS011;21762;54.480;18.556;2022-10-22T11:38:37;31.40;;;17.92;;
35188;SDS011;21762;54.480;18.556;2022-10-22T11:41:06;27.27;;;16.90;;
35188;SDS011;21762;54.480;18.556;2022-10-22T11:43:50;27.70;;;17.65;;
35188;SDS011;21762;54.480;18.556;2022-10-22T11:46:28;29.08;;;17.02;;
35188;SDS011;21762;54.480;18.556;2022-10-22T11:49:04;23.80;;;14.70;;
35188;SDS011;21762;54.480;18.556;2022-10-22T11:51:43;30.83;;;16.48;;
35188;SDS011;21762;54.480;18.556;2022-10-22T11:54:28;26.63;;;15.07;;
35188;SDS011;21762;54.480;18.556;2022-10-22T11:57:11;26.80;;;14.85;;
35188;SDS011;21762;54.480;18.556;2022-10-22T11:59:49;27.55;;;15.95;;
35188;SDS011;21762;54.480;18.556;2022-10-22T12:02:38;27.00;;;14.45;;
35188;SDS011;21762;54.480;18.556;2022-10-22T12:08:05;30.15;;;16.35;;
35188;SDS011;21762;54.480;18.556;2022-10-22T12:10:50;33.17;;;17.25;;
35188;SDS011;21762;54.480;18.556;2022-10-22T12:13:27;31.95;;;16.83;;
35188;SDS011;21762;54.480;18.556;2022-10-22T12:15:58;31.65;;;16.52;;
35188;SDS011;21762;54.480;18.556;2022-10-22T12:18:33;32.17;;;16.13;;
35188;SDS011;21762;54.480;18.556;2022-10-22T12:21:09;37.72;;;18.50;;
35188;SDS011;21762;54.480;18.556;2022-10-22T12:23:39;36.08;;;17.77;;
35188;SDS011;21762;54.480;18.556;2022-10-22T12:26:20;35.92;;;16.83;;
35188;SDS011;21762;54.480;18.556;2022-10-22T12:28:50;41.97;;;18.15;;
35188;SDS011;21762;54.480;18.556;2022-10-22T12:31:18;39.97;;;17.63;;
35188;SDS011;21762;54.480;18.556;2022-10-22T12:33:47;44.40;;;19.88;;
35188;SDS011;21762;54.480;18.556;2022-10-22T12:36:24;46.38;;;19.25;;
35188;SDS011;21762;54.480;18.556;2022-10-22T12:38:53;38.92;;;19.38;;
35188;SDS011;21762;54.480;18.556;2022-10-22T12:41:21;45.10;;;19.77;;
35188;SDS011;21762;54.480;18.556;2022-10-22T12:43:57;49.78;;;19.63;;
35188;SDS011;21762;54.480;18.556;2022-10-22T12:46:26;40.78;;;18.30;;
35188;SDS011;21762;54.480;18.556;2022-10-22T12:48:59;51.22;;;20.23;;
35188;SDS011;21762;54.480;18.556;2022-10-22T12:51:29;43.53;;;19.38;;
35188;SDS011;21762;54.480;18.556;2022-10-22T12:54:03;45.10;;;19.50;;
35188;SDS011;21762;54.480;18.556;2022-10-22T12:56:34;43.35;;;20.48;;
35188;SDS011;21762;54.480;18.556;2022-10-22T12:59:04;50.67;;;22.83;;
35188;SDS011;21762;54.480;18.556;2022-10-22T13:01:36;52.78;;;22.15;;
35188;SDS011;21762;54.480;18.556;2022-10-22T13:04:18;47.78;;;20.52;;
35188;SDS011;21762;54.480;18.556;2022-10-22T13:06:48;51.55;;;20.98;;
35188;SDS011;21762;54.480;18.556;2022-10-22T13:09:18;62.67;;;22.30;;
35188;SDS011;21762;54.480;18.556;2022-10-22T13:11:48;57.85;;;21.55;;
35188;SDS011;21762;54.480;18.556;2022-10-22T13:14:19;57.38;;;22.10;;
35188;SDS011;21762;54.480;18.556;2022-10-22T13:17:03;59.10;;;22.30;;
35188;SDS011;21762;54.480;18.556;2022-10-22T13:19:37;52.45;;;21.38;;
35188;SDS011;21762;54.480;18.556;2022-10-22T13:22:26;65.35;;;23.60;;
35188;SDS011;21762;54.480;18.556;2022-10-22T13:24:57;58.85;;;21.88;;
35188;SDS011;21762;54.480;18.556;2022-10-22T13:27:26;49.67;;;24.58;;
35188;SDS011;21762;54.480;18.556;2022-10-22T13:29:55;47.70;;;26.55;;
35188;SDS011;21762;54.480;18.556;2022-10-22T13:32:28;59.80;;;32.47;;
35188;SDS011;21762;54.480;18.556;2022-10-22T13:34:58;62.20;;;33.50;;
35188;SDS011;21762;54.480;18.556;2022-10-22T13:37:30;64.25;;;36.63;;
35188;SDS011;21762;54.480;18.556;2022-10-22T13:39:59;63.83;;;34.72;;
35188;SDS011;21762;54.480;18.556;2022-10-22T13:42:27;67.55;;;38.58;;
35188;SDS011;21762;54.480;18.556;2022-10-22T13:44:55;65.97;;;37.03;;
35188;SDS011;21762;54.480;18.556;2022-10-22T13:47:24;61.05;;;34.35;;
35188;SDS011;21762;54.480;18.556;2022-10-22T13:52:33;62.65;;;35.15;;
35188;SDS011;21762;54.480;18.556;2022-10-22T13:55:11;72.80;;;38.47;;
35188;SDS011;21762;54.480;18.556;2022-10-22T13:57:40;65.68;;;35.50;;
35188;SDS011;21762;54.480;18.556;2022-10-22T14:00:12;64.93;;;36.08;;
35188;SDS011;21762;54.480;18.556;2022-10-22T14:02:42;67.40;;;35.28;;
35188;SDS011;21762;54.480;18.556;2022-10-22T14:05:11;67.45;;;36.22;;
35188;SDS011;21762;54.480;18.556;2022-10-22T14:07:40;65.35;;;37.13;;
35188;SDS011;21762;54.480;18.556;2022-10-22T14:12:43;65.82;;;34.63;;
35188;SDS011;21762;54.480;18.556;2022-10-22T14:15:14;71.32;;;34.40;;
35188;SDS011;21762;54.480;18.556;2022-10-22T14:17:44;66.63;;;35.75;;
35188;SDS011;21762;54.480;18.556;2022-10-22T14:20:15;82.10;;;33.55;;
35188;SDS011;21762;54.480;18.556;2022-10-22T14:22:49;81.32;;;31.75;;
35188;SDS011;21762;54.480;18.556;2022-10-22T14:25:18;71.35;;;35.50;;
35188;SDS011;21762;54.480;18.556;2022-10-22T14:27:47;71.68;;;35.40;;
35188;SDS011;21762;54.480;18.556;2022-10-22T14:30:16;62.80;;;35.03;;
35188;SDS011;21762;54.480;18.556;2022-10-22T14:32:46;71.00;;;30.88;;
35188;SDS011;21762;54.480;18.556;2022-10-22T14:35:15;96.10;;;32.35;;
35188;SDS011;21762;54.480;18.556;2022-10-22T14:37:44;90.63;;;32.10;;
35188;SDS011;21762;54.480;18.556;2022-10-22T14:40:15;94.53;;;30.48;;
35188;SDS011;21762;54.480;18.556;2022-10-22T14:42:45;86.38;;;33.05;;
35188;SDS011;21762;54.480;18.556;2022-10-22T14:45:15;89.53;;;29.60;;
35188;SDS011;21762;54.480;18.556;2022-10-22T14:47:45;95.25;;;29.45;;